Time,TemperatureF,DewpointF,PressureIn,WindDirection,WindDirectionDegrees,WindSpeedMPH,WindSpeedGustMPH,Humidity,HourlyPrecipIn,Conditions,Clouds,dailyrainin,SoftwareType,DateUTC
2013-03-17 00:12:00,55.3,45.0,30.05,NNE,32,1.0,5.0,68,0.00,,,0.00,weatherlink.com 1.10,2013-03-17 07:12:00,
2013-03-17 00:27:00,54.6,44.0,30.05,NNW,343,1.0,3.0,68,0.00,,,0.00,weatherlink.com 1.10,2013-03-17 07:27:00,
2013-03-17 00:42:00,53.2,43.0,30.06,North,350,3.0,3.0,68,0.00,,,0.00,weatherlink.com 1.10,2013-03-17 07:42:00,
2013-03-17 00:57:00,55.6,43.0,30.06,NNE,18,4.0,6.0,64,0.00,,,0.00,weatherlink.com 1.10,2013-03-17 07:57:00,
2013-03-17 01:12:00,57.2,43.0,30.06,North,360,4.0,7.0,59,0.00,,,0.00,weatherlink.com 1.10,2013-03-17 08:12:00,
2013-03-17 01:27:00,54.2,43.0,30.07,West,264,3.0,5.0,67,0.00,,,0.00,weatherlink.com 1.10,2013-03-17 08:27:00,
2013-03-17 01:42:00,51.1,43.0,30.07,West,279,0.0,2.0,74,0.00,,,0.00,weatherlink.com 1.10,2013-03-17 08:42:00,
2013-03-17 01:57:00,49.2,43.0,30.07,West,279,0.0,2.0,79,0.00,,,0.00,weatherlink.com 1.10,2013-03-17 08:57:00,
2013-03-17 02:13:00,47.8,42.0,30.07,West,270,1.0,3.0,81,0.00,,,0.00,weatherlink.com 1.10,2013-03-17 09:13:00,
2013-03-17 02:28:00,47.6,42.0,30.08,West,270,0.0,0.0,82,0.00,,,0.00,weatherlink.com 1.10,2013-03-17 09:28:00,
2013-03-17 02:43:00,48.4,43.0,30.08,West,270,0.0,0.0,80,0.00,,,0.00,weatherlink.com 1.10,2013-03-17 09:43:00,
2013-03-17 02:58:00,48.4,42.0,30.08,West,270,0.0,0.0,79,0.00,,,0.00,weatherlink.com 1.10,2013-03-17 09:58:00,
2013-03-17 03:13:00,47.3,41.0,30.07,SW,223,0.0,3.0,78,0.00,,,0.00,weatherlink.com 1.10,2013-03-17 10:13:00,
2013-03-17 03:28:00,46.4,41.0,30.07,SW,223,0.0,2.0,82,0.00,,,0.00,weatherlink.com 1.10,2013-03-17 10:28:00,
2013-03-17 03:43:00,46.8,42.0,30.07,SW,223,0.0,1.0,82,0.00,,,0.00,weatherlink.com 1.10,2013-03-17 10:43:00,
2013-03-17 03:58:00,46.7,41.0,30.07,SW,223,0.0,2.0,81,0.00,,,0.00,weatherlink.com 1.10,2013-03-17 10:58:00,
2013-03-17 04:13:00,47.2,42.0,30.07,SW,223,0.0,2.0,82,0.00,,,0.00,weatherlink.com 1.10,2013-03-17 11:13:00,
2013-03-17 04:28:00,48.4,42.0,30.07,SW,223,0.0,0.0,79,0.00,,,0.00,weatherlink.com 1.10,2013-03-17 11:28:00,
2013-03-17 04:43:00,46.8,41.0,30.07,SW,223,2.0,3.0,81,0.00,,,0.00,weatherlink.com 1.10,2013-03-17 11:43:00,
2013-03-17 04:58:00,45.8,42.0,30.07,SW,223,0.0,0.0,85,0.00,,,0.00,weatherlink.com 1.10,2013-03-17 11:58:00,
2013-03-17 05:13:00,44.9,41.0,30.07,SW,223,0.0,0.0,87,0.00,,,0.00,weatherlink.com 1.10,2013-03-17 12:13:00,
2013-03-17 05:28:00,43.6,39.0,30.07,WSW,251,1.0,3.0,85,0.00,,,0.00,weatherlink.com 1.10,2013-03-17 12:28:00,
2013-03-17 05:43:00,43.3,40.0,30.08,SW,225,2.0,2.0,89,0.00,,,0.00,weatherlink.com 1.10,2013-03-17 12:43:00,
2013-03-17 05:58:00,44.0,40.0,30.08,WSW,244,1.0,2.0,87,0.00,,,0.00,weatherlink.com 1.10,2013-03-17 12:58:00,
2013-03-17 06:13:00,42.9,40.0,30.08,WSW,245,0.0,0.0,89,0.00,,,0.00,weatherlink.com 1.10,2013-03-17 13:13:00,
2013-03-17 06:28:00,42.0,39.0,30.09,WSW,244,0.0,0.0,88,0.00,,,0.00,weatherlink.com 1.10,2013-03-17 13:28:00,
2013-03-17 06:43:00,40.8,38.0,30.10,WSW,244,0.0,0.0,90,0.00,,,0.00,weatherlink.com 1.10,2013-03-17 13:43:00,
2013-03-17 06:58:00,40.3,39.0,30.10,WSW,245,0.0,1.0,93,0.00,,,0.00,weatherlink.com 1.10,2013-03-17 13:58:00,
2013-03-17 07:13:00,40.6,39.0,30.10,WSW,245,0.0,0.0,94,0.00,,,0.00,weatherlink.com 1.10,2013-03-17 14:13:00,
2013-03-17 07:28:00,40.6,39.0,30.11,WSW,245,0.0,1.0,93,0.00,,,0.00,weatherlink.com 1.10,2013-03-17 14:28:00,
2013-03-17 07:43:00,40.1,39.0,30.11,WSW,245,0.0,1.0,94,0.00,,,0.00,weatherlink.com 1.10,2013-03-17 14:43:00,
2013-03-17 07:58:00,41.6,40.0,30.12,WSW,240,1.0,4.0,95,0.00,,,0.00,weatherlink.com 1.10,2013-03-17 14:58:00,
2013-03-17 08:13:00,45.3,43.0,30.12,WSW,245,2.0,4.0,91,0.00,,,0.00,weatherlink.com 1.10,2013-03-17 15:13:00,
2013-03-17 08:29:00,47.4,44.0,30.12,SW,231,1.0,4.0,87,0.00,,,0.00,weatherlink.com 1.10,2013-03-17 15:29:00,
2013-03-17 08:44:00,49.4,45.0,30.12,WSW,240,1.0,3.0,84,0.00,,,0.00,weatherlink.com 1.10,2013-03-17 15:44:00,
2013-03-17 08:59:00,51.0,46.0,30.12,WSW,238,2.0,6.0,82,0.00,,,0.00,weatherlink.com 1.10,2013-03-17 15:59:00,
2013-03-17 09:14:00,53.0,45.0,30.12,West,271,6.0,7.0,73,0.00,,,0.00,weatherlink.com 1.10,2013-03-17 16:14:00,
2013-03-17 09:29:00,54.3,45.0,30.13,West,275,2.0,6.0,71,0.00,,,0.00,weatherlink.com 1.10,2013-03-17 16:29:00,
2013-03-17 09:44:00,55.2,46.0,30.13,West,262,6.0,7.0,71,0.00,,,0.00,weatherlink.com 1.10,2013-03-17 16:44:00,
2013-03-17 09:59:00,55.5,45.0,30.13,West,259,2.0,6.0,67,0.00,,,0.00,weatherlink.com 1.10,2013-03-17 16:59:00,
2013-03-17 10:14:00,56.5,44.0,30.13,West,275,3.0,5.0,63,0.00,,,0.00,weatherlink.com 1.10,2013-03-17 17:14:00,
2013-03-17 10:29:00,57.8,42.0,30.13,WSW,256,5.0,5.0,57,0.00,,,0.00,weatherlink.com 1.10,2013-03-17 17:29:00,
2013-03-17 10:44:00,58.8,43.0,30.13,WNW,292,4.0,6.0,56,0.00,,,0.00,weatherlink.com 1.10,2013-03-17 17:44:00,
2013-03-17 10:59:00,60.1,41.0,30.13,NW,319,4.0,10.0,50,0.00,,,0.00,weatherlink.com 1.10,2013-03-17 17:59:00,
2013-03-17 11:14:00,60.3,43.0,30.13,NW,315,4.0,11.0,53,0.00,,,0.00,weatherlink.com 1.10,2013-03-17 18:14:00,
2013-03-17 11:29:00,61.0,41.0,30.13,NW,306,8.0,10.0,49,0.00,,,0.00,weatherlink.com 1.10,2013-03-17 18:29:00,
2013-03-17 11:44:00,62.0,41.0,30.13,WNW,283,6.0,12.0,46,0.00,,,0.00,weatherlink.com 1.10,2013-03-17 18:44:00,
2013-03-17 11:59:00,62.6,41.0,30.12,NW,313,5.0,11.0,46,0.00,,,0.00,weatherlink.com 1.10,2013-03-17 18:59:00,
2013-03-17 12:14:00,63.0,42.0,30.12,NW,307,5.0,11.0,47,0.00,,,0.00,weatherlink.com 1.10,2013-03-17 19:14:00,
2013-03-17 12:29:00,63.5,41.0,30.11,NW,305,9.0,11.0,44,0.00,,,0.00,weatherlink.com 1.10,2013-03-17 19:29:00,
2013-03-17 12:44:00,63.9,40.0,30.11,WNW,298,6.0,13.0,41,0.00,,,0.00,weatherlink.com 1.10,2013-03-17 19:44:00,
2013-03-17 12:59:00,64.7,42.0,30.10,NW,321,7.0,12.0,44,0.00,,,0.00,weatherlink.com 1.10,2013-03-17 19:59:00,
2013-03-17 13:15:00,65.2,43.0,30.09,NW,312,11.0,13.0,44,0.00,,,0.00,weatherlink.com 1.10,2013-03-17 20:15:00,
2013-03-17 13:30:00,65.7,40.0,30.09,WNW,302,9.0,12.0,39,0.00,,,0.00,weatherlink.com 1.10,2013-03-17 20:30:00,
2013-03-17 13:45:00,66.2,38.0,30.08,West,281,9.0,12.0,35,0.00,,,0.00,weatherlink.com 1.10,2013-03-17 20:45:00,
2013-03-17 14:00:00,66.3,39.0,30.08,WNW,282,7.0,12.0,37,0.00,,,0.00,weatherlink.com 1.10,2013-03-17 21:00:00,
2013-03-17 14:15:00,67.1,38.0,30.07,NW,308,11.0,14.0,35,0.00,,,0.00,weatherlink.com 1.10,2013-03-17 21:15:00,
2013-03-17 14:30:00,67.6,40.0,30.06,West,265,8.0,11.0,36,0.00,,,0.00,weatherlink.com 1.10,2013-03-17 21:30:00,
2013-03-17 14:45:00,67.8,40.0,30.06,NW,317,9.0,15.0,36,0.00,,,0.00,weatherlink.com 1.10,2013-03-17 21:45:00,
2013-03-17 15:00:00,68.1,40.0,30.05,NW,305,8.0,14.0,36,0.00,,,0.00,weatherlink.com 1.10,2013-03-17 22:00:00,
2013-03-17 15:15:00,68.4,38.0,30.05,NW,320,11.0,14.0,33,0.00,,,0.00,weatherlink.com 1.10,2013-03-17 22:15:00,
2013-03-17 15:30:00,68.3,40.0,30.05,West,276,9.0,12.0,36,0.00,,,0.00,weatherlink.com 1.10,2013-03-17 22:30:00,
2013-03-17 15:45:00,68.0,38.0,30.04,NW,304,8.0,10.0,34,0.00,,,0.00,weatherlink.com 1.10,2013-03-17 22:45:00,
2013-03-17 16:00:00,68.0,40.0,30.03,NW,307,5.0,9.0,36,0.00,,,0.00,weatherlink.com 1.10,2013-03-17 23:00:00,
2013-03-17 16:15:00,69.6,41.0,30.03,WNW,282,6.0,10.0,36,0.00,,,0.00,weatherlink.com 1.10,2013-03-17 23:15:00,
2013-03-17 16:30:00,69.9,39.0,30.02,WNW,301,4.0,10.0,32,0.00,,,0.00,weatherlink.com 1.10,2013-03-17 23:30:00,
2013-03-17 16:45:00,69.9,39.0,30.02,NW,325,7.0,11.0,32,0.00,,,0.00,weatherlink.com 1.10,2013-03-17 23:45:00,
2013-03-17 17:00:00,69.7,38.0,30.03,NW,324,8.0,14.0,31,0.00,,,0.00,weatherlink.com 1.10,2013-03-18 00:00:00,
2013-03-17 17:15:00,69.9,41.0,30.02,NW,311,7.0,11.0,35,0.00,,,0.00,weatherlink.com 1.10,2013-03-18 00:15:00,
2013-03-17 17:30:00,69.8,38.0,30.02,NW,315,7.0,10.0,31,0.00,,,0.00,weatherlink.com 1.10,2013-03-18 00:30:00,
2013-03-17 17:46:00,68.9,39.0,30.02,WNW,303,5.0,8.0,34,0.00,,,0.00,weatherlink.com 1.10,2013-03-18 00:46:00,
2013-03-17 18:00:00,68.0,41.0,30.02,WNW,293,4.0,7.0,37,0.00,,,0.00,weatherlink.com 1.10,2013-03-18 01:00:00,
2013-03-17 18:15:00,67.0,42.0,30.02,WNW,284,2.0,4.0,40,0.00,,,0.00,weatherlink.com 1.10,2013-03-18 01:15:00,
2013-03-17 18:30:00,65.9,42.0,30.02,West,273,2.0,3.0,42,0.00,,,0.00,weatherlink.com 1.10,2013-03-18 01:30:00,
2013-03-17 18:45:00,64.8,43.0,30.01,West,273,0.0,1.0,45,0.00,,,0.00,weatherlink.com 1.10,2013-03-18 01:45:00,
2013-03-17 19:00:00,63.8,40.0,30.01,West,273,0.0,0.0,42,0.00,,,0.00,weatherlink.com 1.10,2013-03-18 02:00:00,
2013-03-17 19:15:00,62.4,41.0,30.01,West,273,0.0,0.0,46,0.00,,,0.00,weatherlink.com 1.10,2013-03-18 02:15:00,
2013-03-17 19:30:00,60.3,42.0,30.01,SW,223,2.0,5.0,52,0.00,,,0.00,weatherlink.com 1.10,2013-03-18 02:30:00,
2013-03-17 19:45:00,59.6,45.0,30.01,SW,217,3.0,7.0,58,0.00,,,0.00,weatherlink.com 1.10,2013-03-18 02:45:00,
2013-03-17 20:00:00,59.1,45.0,30.02,SW,227,5.0,7.0,60,0.00,,,0.00,weatherlink.com 1.10,2013-03-18 03:00:00,
2013-03-17 20:15:00,58.0,45.0,30.02,SW,229,2.0,6.0,63,0.00,,,0.00,weatherlink.com 1.10,2013-03-18 03:15:00,
2013-03-17 20:30:00,57.5,45.0,30.02,SW,234,5.0,7.0,63,0.00,,,0.00,weatherlink.com 1.10,2013-03-18 03:30:00,
2013-03-17 20:45:00,57.1,45.0,30.02,SW,219,2.0,6.0,64,0.00,,,0.00,weatherlink.com 1.10,2013-03-18 03:45:00,
2013-03-17 21:00:00,56.7,45.0,30.02,SW,221,3.0,9.0,65,0.00,,,0.00,weatherlink.com 1.10,2013-03-18 04:00:00,
2013-03-17 21:15:00,56.2,44.0,30.03,SW,229,7.0,7.0,65,0.00,,,0.00,weatherlink.com 1.10,2013-03-18 04:15:00,
2013-03-17 21:30:00,55.7,44.0,30.04,WSW,237,2.0,6.0,66,0.00,,,0.00,weatherlink.com 1.10,2013-03-18 04:30:00,
2013-03-17 21:45:00,55.0,44.0,30.04,WSW,247,1.0,4.0,67,0.00,,,0.00,weatherlink.com 1.10,2013-03-18 04:45:00,
2013-03-17 22:00:00,54.4,44.0,30.05,WSW,246,1.0,3.0,68,0.00,,,0.00,weatherlink.com 1.10,2013-03-18 05:00:00,
2013-03-17 22:15:00,53.8,43.0,30.04,WSW,241,3.0,5.0,67,0.00,,,0.00,weatherlink.com 1.10,2013-03-18 05:15:00,
2013-03-17 22:30:00,53.2,43.0,30.04,WSW,242,1.0,5.0,68,0.00,,,0.00,weatherlink.com 1.10,2013-03-18 05:30:00,
2013-03-17 22:45:00,52.6,43.0,30.05,WSW,240,2.0,3.0,70,0.00,,,0.00,weatherlink.com 1.10,2013-03-18 05:45:00,
2013-03-17 23:00:00,51.9,43.0,30.05,WSW,240,0.0,2.0,72,0.00,,,0.00,weatherlink.com 1.10,2013-03-18 06:00:00,
2013-03-17 23:15:00,51.3,43.0,30.05,SW,229,3.0,4.0,73,0.00,,,0.00,weatherlink.com 1.10,2013-03-18 06:15:00,
2013-03-17 23:30:00,50.7,43.0,30.05,SW,235,2.0,5.0,75,0.00,,,0.00,weatherlink.com 1.10,2013-03-18 06:30:00,
2013-03-17 23:45:00,50.6,43.0,30.05,WSW,256,2.0,4.0,74,0.00,,,0.00,weatherlink.com 1.10,2013-03-18 06:45:00,